Cyprus Cement — C6UP5 — position and weather

sailwx.info

Track history (hours):
 
Tides and Currents Weather Stations Pressure Air Temp Water Temp Dewpoint Dewpoint Depression Visibility Wind Speed Wind Dir Waves Ship Positions

Cyprus Cement

Last reported at 2015-Sep-04 18:21 UTC. Time now 2015-Sep-05 07:51 UTC.
Position N 55°37' E 015°21'.

Length 97 m; draft 7.2 m.

Type: Cargo ship. MMSI: 311988000.

Date/timePositionNaut miles runAvg speedWind from/ knotsBaromVisibWave heightAir tempDewpointWater temp
2015-Sep-04 18:21N 55°37' E 015°21'911.9
2015-Sep-04 17:33N 55°32' E 015°07'1211.9
2015-Sep-04 16:33N 55°27' E 014°48'1211.7
2015-Sep-04 15:33N 55°19' E 014°33'1211.6
2015-Sep-04 14:33N 55°10' E 014°20'1211.7
2015-Sep-04 13:33N 55°01' E 014°08'1212.0
2015-Sep-04 12:33N 54°57' E 013°47'5811.6
2015-Sep-04 07:33N 54°32' E 012°17'1110.5
2015-Sep-04 06:33N 54°24' E 012°04'1212.0
2015-Sep-04 05:33N 54°25' E 011°44'1212.3
2015-Sep-04 04:33N 54°31' E 011°25'1111.5
2015-Sep-04 03:33N 54°35' E 011°07'1211.6
2015-Sep-04 02:29N 54°34' E 010°45'1111.9
2015-Sep-04 01:33N 54°32' E 010°27'1110.8
2015-Sep-04 00:33N 54°25' E 010°13'4 3.9
2015-Sep-03 23:33N 54°22' E 010°08'4 3.5
2015-Sep-03 22:34N 54°22' E 010°02'7 7.1
2015-Sep-03 21:33N 54°22' E 009°50'6 6.4
2015-Sep-03 20:33N 54°18' E 009°42'8 7.7
2015-Sep-03 19:33N 54°12' E 009°33'9 8.2
2015-Sep-03 18:29N 54°08' E 009°20'6 6.2
2015-Sep-03 17:33N 54°02' E 009°18'6 6.0
2015-Sep-03 16:33N 53°57' E 009°14'1 0.8
2015-Sep-03 15:33N 53°56' E 009°13'3 3.3
2015-Sep-03 14:33N 53°54' E 009°09'2 1.5
2015-Sep-03 13:33N 53°53' E 009°07'2 2.4
2015-Sep-03 12:33N 53°52' E 009°03'1211.7
2015-Sep-03 11:34N 53°52' E 008°43'1211.7
2015-Sep-03 10:33N 53°59' E 008°26'1211.7
2015-Sep-03 09:34N 53°59' E 008°06'1211.7
2015-Sep-03 08:34N 53°57' E 007°47'1111.0
2015-Sep-03 07:33N 53°54' E 007°29'1110.5
2015-Sep-03 06:33N 53°52' E 007°11'1010.3
2015-Sep-03 05:32N 53°49' E 006°54'1010.3
2015-Sep-03 04:33N 53°46' E 006°37'10 9.8
2015-Sep-03 03:33N 53°42' E 006°23'7 7.2
2015-Sep-03 02:34N 53°37' E 006°32'1111.2
2015-Sep-03 01:33N 53°30' E 006°48'4 4.4
2015-Sep-03 00:32N 53°27' E 006°51'0 0.0
2015-Sep-02 23:32N 53°27' E 006°51'0 0.0
2015-Sep-02 22:32N 53°27' E 006°51'0 0.0
2015-Sep-02 21:33N 53°27' E 006°51'0 0.0
2015-Sep-02 20:32N 53°27' E 006°51'0 0.0
2015-Sep-02 19:30N 53°27' E 006°51'0 0.0
2015-Sep-02 18:30N 53°27' E 006°51'0 0.0
2015-Sep-02 17:29N 53°27' E 006°51'0 0.0
2015-Sep-02 16:32N 53°27' E 006°51'0 0.0
2015-Sep-02 15:32N 53°27' E 006°51'0 0.0
2015-Sep-02 14:32N 53°27' E 006°51'0 0.0
2015-Sep-02 13:29N 53°27' E 006°51'0 0.0
2015-Sep-02 12:32N 53°27' E 006°51'0 0.0
2015-Sep-02 11:32N 53°27' E 006°51'0 0.0
2015-Sep-02 10:32N 53°27' E 006°51'0 0.0
2015-Sep-02 09:32N 53°27' E 006°51'0 0.0
2015-Sep-02 08:32N 53°27' E 006°51'0 0.0
2015-Sep-02 07:32N 53°27' E 006°51'0 0.0
2015-Sep-02 06:32N 53°27' E 006°51'0 0.0
2015-Sep-02 05:32N 53°27' E 006°51'0 0.0
2015-Sep-02 04:32N 53°27' E 006°51'0 0.0
2015-Sep-02 03:32N 53°27' E 006°51'0 0.0
2015-Sep-02 02:32N 53°27' E 006°51'0 0.0
2015-Sep-02 01:32N 53°27' E 006°51'0 0.0
2015-Sep-02 00:32N 53°27' E 006°51'0 0.0
2015-Sep-01 23:32N 53°27' E 006°51'0 0.0
2015-Sep-01 22:32N 53°27' E 006°51'0 0.0
2015-Sep-01 21:29N 53°27' E 006°51'1 0.6
2015-Sep-01 20:33N 53°27' E 006°50'9 9.2
2015-Sep-01 19:34N 53°34' E 006°40'1110.9
2015-Sep-01 18:33N 53°37' E 006°23'10 9.7
2015-Sep-01 17:33N 53°47' E 006°21'10 9.1
2015-Sep-01 16:29N 53°52' E 006°35'1010.2
2015-Sep-01 15:32N 53°54' E 006°51'1110.6
2015-Sep-01 14:32N 53°57' E 007°08'1111.1
2015-Sep-01 13:33N 53°59' E 007°26'1110.7
2015-Sep-01 12:34N 54°02' E 007°44'10 9.9
2015-Sep-01 11:33N 54°01' E 008°01'10 9.9
2015-Sep-01 10:33N 54°00' E 008°18'9 9.1
2015-Sep-01 09:34N 53°58' E 008°33'1111.2
2015-Sep-01 08:34N 53°51' E 008°47'1313.1
2015-Sep-01 07:33N 53°54' E 009°09'4 3.8
2015-Sep-01 06:34N 53°56' E 009°13'8 8.2
2015-Sep-01 05:33N 54°04' E 009°19'9 7.9
2015-Sep-01 04:28N 54°11' E 009°27'8 7.6
2015-Sep-01 03:24N 54°16' E 009°38'7 8.0
2015-Sep-01 02:33N 54°21' E 009°46'8 7.7
2015-Sep-01 01:33N 54°21' E 009°59'6 5.6
2015-Sep-01 00:33N 54°22' E 010°09'6 5.8
2015-Aug-31 23:33N 54°27' E 010°14'1611.6
2015-Aug-31 22:11N 54°34' E 010°38'1112.0
2015-Aug-31 21:14N 54°35' E 010°58'811.6
2015-Aug-31 20:33N 54°36' E 011°11'1312.6
2015-Aug-31 19:33N 54°31' E 011°31'1212.2
2015-Aug-31 18:33N 54°26' E 011°51'1211.9
2015-Aug-31 17:33N 54°29' E 012°11'1211.9
2015-Aug-31 16:31N 54°39' E 012°22'1512.1
2015-Aug-31 15:16N 54°47' E 012°45'1012.8
2015-Aug-31 14:31N 54°47' E 013°01'1312.8
2015-Aug-31 13:32N 54°46' E 013°23'1512.3
2015-Aug-31 12:18N 54°44' E 013°49'912.4
2015-Aug-31 11:33N 54°41' E 014°04'1312.5
2015-Aug-31 10:33N 54°38' E 014°25'1512.8
2015-Aug-31 09:24N 54°40' E 014°50'1112.6
2015-Aug-31 08:33N 54°41' E 015°08'1312.7
2015-Aug-31 07:33N 54°43' E 015°30'1312.5
2015-Aug-31 06:33N 54°45' E 015°52'5112.7
2015-Aug-31 02:34N 54°55' E 017°18'1313.0
2015-Aug-31 01:34N 54°55' E 017°41'1312.6
2015-Aug-31 00:33N 54°56' E 018°03'1312.9
2015-Aug-30 23:33N 54°57' E 018°25'1312.7
2015-Aug-30 22:33N 54°54' E 018°47'1312.7
2015-Aug-30 21:33N 54°50' E 019°08'1212.3
2015-Aug-30 20:33N 54°47' E 019°28'1212.4
2015-Aug-30 19:33N 54°41' E 019°47'9 9.2
2015-Aug-30 18:34N 54°39' E 020°02'8 8.4
2015-Aug-30 17:34N 54°41' E 020°16'7 0.7
2015-Aug-30 07:34N 54°42' E 020°28'0 0.0
2015-Aug-30 06:31N 54°42' E 020°28'0 0.0
2015-Aug-30 04:08N 54°42' E 020°28'0 0.0
2015-Aug-30 03:32N 54°42' E 020°28'0 0.0
2015-Aug-30 02:32N 54°42' E 020°28'0 0.0
2015-Aug-30 01:32N 54°42' E 020°28'0 0.0
2015-Aug-30 00:33N 54°42' E 020°28'0 0.0
2015-Aug-29 23:33N 54°42' E 020°28'0 0.0
2015-Aug-29 22:24N 54°42' E 020°28'0 0.0
2015-Aug-29 21:33N 54°42' E 020°28'23 2.9
2015-Aug-29 13:34N 54°40' E 019°49'1010.4
2015-Aug-29 12:34N 54°46' E 019°35'1111.1
2015-Aug-29 11:33N 54°57' E 019°32'1211.6
2015-Aug-29 10:31N 55°09' E 019°31'253 6.3
2015-Aug-27 18:14N 59°16' E 017°47'710.6
2015-Aug-27 17:33N 59°19' E 017°60'1 0.7
2015-Aug-27 16:24N 59°19' E 018°01'0 0.0
2015-Aug-27 15:12N 59°19' E 018°01'0 0.0
2015-Aug-27 14:24N 59°19' E 018°01'0 0.0
2015-Aug-27 13:30N 59°19' E 018°01'0 0.0
2015-Aug-27 12:30N 59°19' E 018°01'0 0.0
2015-Aug-27 11:30N 59°19' E 018°01'0 0.0
2015-Aug-27 10:24N 59°19' E 018°01'0 0.0
2015-Aug-27 09:30N 59°19' E 018°01'0 0.0
2015-Aug-27 08:30N 59°19' E 018°01'0 0.0
2015-Aug-27 07:18N 59°19' E 018°01'0 0.0
2015-Aug-27 06:27N 59°19' E 018°01'0 0.0
2015-Aug-26 23:33N 59°19' E 018°01'  
Track history (hours):
 
Tides and Currents Weather Stations Pressure Air Temp Water Temp Dewpoint Dewpoint Depression Visibility Wind Speed Wind Dir Waves Ship Positions

Cyprus Cement

Last reported at 2015-Sep-04 18:21 UTC. Time now 2015-Sep-05 07:51 UTC.
Position N 55°37' E 015°21'.

Length 97 m; draft 7.2 m.

Type: Cargo ship. MMSI: 311988000.

Date/timePositionNaut miles runAvg speedWind from/ knotsBaromVisibWave heightAir tempDewpointWater temp
2015-Sep-04 18:21N 55°37' E 015°21'911.9
2015-Sep-04 17:33N 55°32' E 015°07'1211.9
2015-Sep-04 16:33N 55°27' E 014°48'1211.7
2015-Sep-04 15:33N 55°19' E 014°33'1211.6
2015-Sep-04 14:33N 55°10' E 014°20'1211.7
2015-Sep-04 13:33N 55°01' E 014°08'1212.0
2015-Sep-04 12:33N 54°57' E 013°47'5811.6
2015-Sep-04 07:33N 54°32' E 012°17'1110.5
2015-Sep-04 06:33N 54°24' E 012°04'1212.0
2015-Sep-04 05:33N 54°25' E 011°44'1212.3
2015-Sep-04 04:33N 54°31' E 011°25'1111.5
2015-Sep-04 03:33N 54°35' E 011°07'1211.6
2015-Sep-04 02:29N 54°34' E 010°45'1111.9
2015-Sep-04 01:33N 54°32' E 010°27'1110.8
2015-Sep-04 00:33N 54°25' E 010°13'4 3.9
2015-Sep-03 23:33N 54°22' E 010°08'4 3.5
2015-Sep-03 22:34N 54°22' E 010°02'7 7.1
2015-Sep-03 21:33N 54°22' E 009°50'6 6.4
2015-Sep-03 20:33N 54°18' E 009°42'8 7.7
2015-Sep-03 19:33N 54°12' E 009°33'9 8.2
2015-Sep-03 18:29N 54°08' E 009°20'6 6.2
2015-Sep-03 17:33N 54°02' E 009°18'6 6.0
2015-Sep-03 16:33N 53°57' E 009°14'1 0.8
2015-Sep-03 15:33N 53°56' E 009°13'3 3.3
2015-Sep-03 14:33N 53°54' E 009°09'2 1.5
2015-Sep-03 13:33N 53°53' E 009°07'2 2.4
2015-Sep-03 12:33N 53°52' E 009°03'1211.7
2015-Sep-03 11:34N 53°52' E 008°43'1211.7
2015-Sep-03 10:33N 53°59' E 008°26'1211.7
2015-Sep-03 09:34N 53°59' E 008°06'1211.7
2015-Sep-03 08:34N 53°57' E 007°47'1111.0
2015-Sep-03 07:33N 53°54' E 007°29'1110.5
2015-Sep-03 06:33N 53°52' E 007°11'1010.3
2015-Sep-03 05:32N 53°49' E 006°54'1010.3
2015-Sep-03 04:33N 53°46' E 006°37'10 9.8
2015-Sep-03 03:33N 53°42' E 006°23'7 7.2
2015-Sep-03 02:34N 53°37' E 006°32'1111.2
2015-Sep-03 01:33N 53°30' E 006°48'4 4.4
2015-Sep-03 00:32N 53°27' E 006°51'0 0.0
2015-Sep-02 23:32N 53°27' E 006°51'0 0.0
2015-Sep-02 22:32N 53°27' E 006°51'0 0.0
2015-Sep-02 21:33N 53°27' E 006°51'0 0.0
2015-Sep-02 20:32N 53°27' E 006°51'0 0.0
2015-Sep-02 19:30N 53°27' E 006°51'0 0.0
2015-Sep-02 18:30N 53°27' E 006°51'0 0.0
2015-Sep-02 17:29N 53°27' E 006°51'0 0.0
2015-Sep-02 16:32N 53°27' E 006°51'0 0.0
2015-Sep-02 15:32N 53°27' E 006°51'0 0.0
2015-Sep-02 14:32N 53°27' E 006°51'0 0.0
2015-Sep-02 13:29N 53°27' E 006°51'0 0.0
2015-Sep-02 12:32N 53°27' E 006°51'0 0.0
2015-Sep-02 11:32N 53°27' E 006°51'0 0.0
2015-Sep-02 10:32N 53°27' E 006°51'0 0.0
2015-Sep-02 09:32N 53°27' E 006°51'0 0.0
2015-Sep-02 08:32N 53°27' E 006°51'0 0.0
2015-Sep-02 07:32N 53°27' E 006°51'0 0.0
2015-Sep-02 06:32N 53°27' E 006°51'0 0.0
2015-Sep-02 05:32N 53°27' E 006°51'0 0.0
2015-Sep-02 04:32N 53°27' E 006°51'0 0.0
2015-Sep-02 03:32N 53°27' E 006°51'0 0.0
2015-Sep-02 02:32N 53°27' E 006°51'0 0.0
2015-Sep-02 01:32N 53°27' E 006°51'0 0.0
2015-Sep-02 00:32N 53°27' E 006°51'0 0.0
2015-Sep-01 23:32N 53°27' E 006°51'0 0.0
2015-Sep-01 22:32N 53°27' E 006°51'0 0.0
2015-Sep-01 21:29N 53°27' E 006°51'1 0.6
2015-Sep-01 20:33N 53°27' E 006°50'9 9.2
2015-Sep-01 19:34N 53°34' E 006°40'1110.9
2015-Sep-01 18:33N 53°37' E 006°23'10 9.7
2015-Sep-01 17:33N 53°47' E 006°21'10 9.1
2015-Sep-01 16:29N 53°52' E 006°35'1010.2
2015-Sep-01 15:32N 53°54' E 006°51'1110.6
2015-Sep-01 14:32N 53°57' E 007°08'1111.1
2015-Sep-01 13:33N 53°59' E 007°26'1110.7
2015-Sep-01 12:34N 54°02' E 007°44'10 9.9
2015-Sep-01 11:33N 54°01' E 008°01'10 9.9
2015-Sep-01 10:33N 54°00' E 008°18'9 9.1
2015-Sep-01 09:34N 53°58' E 008°33'1111.2
2015-Sep-01 08:34N 53°51' E 008°47'1313.1
2015-Sep-01 07:33N 53°54' E 009°09'4 3.8
2015-Sep-01 06:34N 53°56' E 009°13'8 8.2
2015-Sep-01 05:33N 54°04' E 009°19'9 7.9
2015-Sep-01 04:28N 54°11' E 009°27'8 7.6
2015-Sep-01 03:24N 54°16' E 009°38'7 8.0
2015-Sep-01 02:33N 54°21' E 009°46'8 7.7
2015-Sep-01 01:33N 54°21' E 009°59'6 5.6
2015-Sep-01 00:33N 54°22' E 010°09'6 5.8
2015-Aug-31 23:33N 54°27' E 010°14'1611.6
2015-Aug-31 22:11N 54°34' E 010°38'1112.0
2015-Aug-31 21:14N 54°35' E 010°58'811.6
2015-Aug-31 20:33N 54°36' E 011°11'1312.6
2015-Aug-31 19:33N 54°31' E 011°31'1212.2
2015-Aug-31 18:33N 54°26' E 011°51'1211.9
2015-Aug-31 17:33N 54°29' E 012°11'1211.9
2015-Aug-31 16:31N 54°39' E 012°22'1512.1
2015-Aug-31 15:16N 54°47' E 012°45'1012.8
2015-Aug-31 14:31N 54°47' E 013°01'1312.8
2015-Aug-31 13:32N 54°46' E 013°23'1512.3
2015-Aug-31 12:18N 54°44' E 013°49'912.4
2015-Aug-31 11:33N 54°41' E 014°04'1312.5
2015-Aug-31 10:33N 54°38' E 014°25'1512.8
2015-Aug-31 09:24N 54°40' E 014°50'1112.6
2015-Aug-31 08:33N 54°41' E 015°08'1312.7
2015-Aug-31 07:33N 54°43' E 015°30'1312.5
2015-Aug-31 06:33N 54°45' E 015°52'5112.7
2015-Aug-31 02:34N 54°55' E 017°18'1313.0
2015-Aug-31 01:34N 54°55' E 017°41'1312.6
2015-Aug-31 00:33N 54°56' E 018°03'1312.9
2015-Aug-30 23:33N 54°57' E 018°25'1312.7
2015-Aug-30 22:33N 54°54' E 018°47'1312.7
2015-Aug-30 21:33N 54°50' E 019°08'1212.3
2015-Aug-30 20:33N 54°47' E 019°28'1212.4
2015-Aug-30 19:33N 54°41' E 019°47'9 9.2
2015-Aug-30 18:34N 54°39' E 020°02'8 8.4
2015-Aug-30 17:34N 54°41' E 020°16'7 0.7
2015-Aug-30 07:34N 54°42' E 020°28'0 0.0
2015-Aug-30 06:31N 54°42' E 020°28'0 0.0
2015-Aug-30 04:08N 54°42' E 020°28'0 0.0
2015-Aug-30 03:32N 54°42' E 020°28'0 0.0
2015-Aug-30 02:32N 54°42' E 020°28'0 0.0
2015-Aug-30 01:32N 54°42' E 020°28'0 0.0
2015-Aug-30 00:33N 54°42' E 020°28'0 0.0
2015-Aug-29 23:33N 54°42' E 020°28'0 0.0
2015-Aug-29 22:24N 54°42' E 020°28'0 0.0
2015-Aug-29 21:33N 54°42' E 020°28'23 2.9
2015-Aug-29 13:34N 54°40' E 019°49'1010.4
2015-Aug-29 12:34N 54°46' E 019°35'1111.1
2015-Aug-29 11:33N 54°57' E 019°32'1211.6
2015-Aug-29 10:31N 55°09' E 019°31'253 6.3
2015-Aug-27 18:14N 59°16' E 017°47'710.6
2015-Aug-27 17:33N 59°19' E 017°60'1 0.7
2015-Aug-27 16:24N 59°19' E 018°01'0 0.0
2015-Aug-27 15:12N 59°19' E 018°01'0 0.0
2015-Aug-27 14:24N 59°19' E 018°01'0 0.0
2015-Aug-27 13:30N 59°19' E 018°01'0 0.0
2015-Aug-27 12:30N 59°19' E 018°01'0 0.0
2015-Aug-27 11:30N 59°19' E 018°01'0 0.0
2015-Aug-27 10:24N 59°19' E 018°01'0 0.0
2015-Aug-27 09:30N 59°19' E 018°01'0 0.0
2015-Aug-27 08:30N 59°19' E 018°01'0 0.0
2015-Aug-27 07:18N 59°19' E 018°01'0 0.0
2015-Aug-27 06:27N 59°19' E 018°01'0 0.0
2015-Aug-26 23:33N 59°19' E 018°01'  

Dump ship's entire track history